Time;durP1;ratioP1;P1;durP2;ratioP2;P2;SDS_P1;SDS_P2;PMS_P1;PMS_P2;Temp;Humidity;BMP_temperature;BMP_pressure;BME280_temperature;BME280_humidity;BME280_pressure;Samples;Min_cycle;Max_cycle;Signal;HPM_P1;HPM_P2
2021/10/20 00:02:02;;;;;;;6.10;4.30;;;12.80;99.90;;;;;;5057334;28;20448;-81
2021/10/20 00:04:29;;;;;;;4.90;4.50;;;12.70;99.90;;;;;;5058032;28;20459;-81
2021/10/20 00:06:56;;;;;;;4.93;4.43;;;12.60;99.90;;;;;;5057776;28;20451;-83
2021/10/20 00:09:23;;;;;;;5.23;4.73;;;12.50;99.90;;;;;;5057691;28;20470;-81
2021/10/20 00:11:49;;;;;;;5.87;5.33;;;12.40;99.90;;;;;;5057320;28;20458;-83
2021/10/20 00:14:17;;;;;;;5.17;4.77;;;12.40;99.90;;;;;;5057455;28;20474;-81
2021/10/20 00:16:44;;;;;;;5.60;5.13;;;12.30;99.90;;;;;;5057565;28;20486;-81
2021/10/20 00:19:12;;;;;;;5.40;4.97;;;12.20;99.90;;;;;;5044414;28;20464;-81
2021/10/20 00:21:39;;;;;;;5.43;4.77;;;12.10;99.90;;;;;;5037423;28;20466;-81
2021/10/20 00:24:06;;;;;;;4.87;4.47;;;12.10;99.90;;;;;;5054404;28;20482;-81
2021/10/20 00:26:32;;;;;;;5.97;4.73;;;12.10;99.90;;;;;;5057466;28;20459;-81
2021/10/20 00:28:59;;;;;;;5.40;4.63;;;12.00;99.90;;;;;;5059995;28;20959;-81
2021/10/20 00:31:26;;;;;;;5.47;5.00;;;11.90;99.90;;;;;;5061805;28;20447;-81
2021/10/20 00:33:53;;;;;;;5.60;5.10;;;11.90;99.90;;;;;;5047422;28;20476;-81
2021/10/20 00:36:21;;;;;;;4.53;4.13;;;11.90;99.90;;;;;;5041401;28;20492;-81
2021/10/20 00:38:48;;;;;;;4.87;4.47;;;11.80;99.90;;;;;;5049411;28;20470;-81
2021/10/20 00:41:15;;;;;;;5.27;4.53;;;11.90;99.90;;;;;;5041595;28;20456;-83
2021/10/20 00:43:43;;;;;;;4.33;3.87;;;11.80;99.90;;;;;;5041531;28;20472;-81
2021/10/20 00:46:09;;;;;;;5.70;4.20;;;11.90;99.90;;;;;;5040953;28;20454;-81
2021/10/20 00:48:36;;;;;;;4.20;3.80;;;11.90;99.90;;;;;;5041034;28;20460;-80
2021/10/20 00:51:03;;;;;;;6.23;4.90;;;11.90;99.90;;;;;;5041346;28;20448;-81
2021/10/20 00:53:31;;;;;;;4.07;3.77;;;11.90;99.90;;;;;;5040305;28;20988;-81
2021/10/20 00:55:58;;;;;;;5.00;4.60;;;11.90;99.90;;;;;;5040431;28;20447;-81
2021/10/20 00:58:25;;;;;;;6.47;5.67;;;12.00;99.90;;;;;;5051777;28;20454;-83
2021/10/20 01:00:52;;;;;;;5.77;4.40;;;12.00;99.90;;;;;;5060400;28;20458;-81
2021/10/20 01:03:19;;;;;;;4.30;4.00;;;12.00;99.90;;;;;;5055759;28;20475;-80
2021/10/20 01:05:46;;;;;;;4.87;4.30;;;12.00;99.90;;;;;;5040715;28;20798;-80
2021/10/20 01:08:13;;;;;;;5.00;4.50;;;12.10;99.90;;;;;;5040566;28;20456;-81
2021/10/20 01:10:41;;;;;;;3.90;3.60;;;12.10;99.90;;;;;;5040819;28;20450;-81
2021/10/20 01:13:07;;;;;;;6.10;4.30;;;12.10;99.90;;;;;;5041562;28;20475;-81
2021/10/20 01:15:34;;;;;;;4.40;4.00;;;12.00;99.90;;;;;;5039995;28;20455;-82
2021/10/20 01:18:02;;;;;;;3.50;3.20;;;12.00;99.90;;;;;;5040222;28;20485;-81
2021/10/20 01:20:31;;;;;;;10.20;4.10;;;12.10;99.90;;;;;;5040478;28;20491;-80
2021/10/20 01:23:00;;;;;;;3.83;3.50;;;12.10;99.90;;;;;;5044868;28;20923;-80
2021/10/20 01:25:27;;;;;;;4.10;3.77;;;12.10;99.90;;;;;;5040402;28;20896;-80
2021/10/20 01:27:54;;;;;;;4.10;3.70;;;12.10;99.90;;;;;;5052859;28;20527;-81
2021/10/20 01:30:21;;;;;;;4.67;4.27;;;12.10;99.90;;;;;;5060725;28;20454;-81
2021/10/20 01:32:47;;;;;;;4.90;3.73;;;12.20;99.90;;;;;;5060376;28;20480;-81
2021/10/20 01:35:14;;;;;;;3.90;3.60;;;12.20;99.90;;;;;;5059822;28;20458;-81
2021/10/20 01:37:42;;;;;;;4.77;4.10;;;12.20;99.90;;;;;;5049592;28;20491;-80
2021/10/20 01:40:11;;;;;;;3.50;3.20;;;12.30;99.90;;;;;;5039209;28;20452;-81
2021/10/20 01:42:39;;;;;;;6.77;3.83;;;12.40;99.90;;;;;;5039461;28;20480;-81
2021/10/20 01:45:08;;;;;;;3.40;3.17;;;12.50;99.90;;;;;;5040017;28;20863;-84
2021/10/20 01:47:35;;;;;;;4.17;3.87;;;12.60;99.90;;;;;;5040188;28;20475;-81
2021/10/20 01:50:03;;;;;;;5.53;3.53;;;12.70;99.90;;;;;;5040490;28;20437;-81
2021/10/20 01:52:30;;;;;;;3.90;3.60;;;12.60;99.90;;;;;;5047505;28;20484;-80
2021/10/20 01:54:56;;;;;;;3.60;3.30;;;12.70;99.90;;;;;;5059689;28;20947;-81
2021/10/20 01:57:24;;;;;;;4.40;4.07;;;12.70;99.90;;;;;;5053177;28;20488;-81
2021/10/20 01:59:51;;;;;;;3.43;3.13;;;12.80;99.90;;;;;;5039758;28;20958;-80
2021/10/20 02:02:19;;;;;;;3.93;3.57;;;12.80;99.90;;;;;;5039828;28;20476;-80
2021/10/20 02:04:46;;;;;;;4.53;4.20;;;12.70;99.90;;;;;;5039608;28;20448;-81
2021/10/20 02:07:13;;;;;;;4.20;3.90;;;12.70;99.90;;;;;;5047477;28;20858;-81
2021/10/20 02:09:40;;;;;;;3.50;3.20;;;12.70;99.90;;;;;;5060023;28;20456;-81
2021/10/20 02:12:07;;;;;;;4.03;3.73;;;12.60;99.90;;;;;;5059218;28;20445;-83
2021/10/20 02:14:36;;;;;;;6.43;3.37;;;12.60;99.90;;;;;;5059236;28;20830;-81
2021/10/20 02:17:03;;;;;;;5.80;4.40;;;12.40;99.90;;;;;;5058183;28;20484;-80
2021/10/20 02:19:29;;;;;;;4.17;3.87;;;12.40;99.90;;;;;;5058526;28;20460;-81
2021/10/20 02:21:57;;;;;;;5.13;4.63;;;12.30;99.90;;;;;;5059425;28;20458;-81
2021/10/20 02:24:23;;;;;;;4.53;4.20;;;12.30;99.90;;;;;;5049494;28;20453;-80
2021/10/20 02:26:50;;;;;;;4.80;4.40;;;12.20;99.90;;;;;;5039543;28;20452;-81
2021/10/20 02:29:17;;;;;;;4.53;4.10;;;12.20;99.90;;;;;;5039224;28;20460;-83
2021/10/20 02:31:46;;;;;;;8.70;4.80;;;12.20;99.90;;;;;;5042037;28;20452;-81
2021/10/20 02:34:14;;;;;;;4.07;3.77;;;12.10;99.90;;;;;;5039528;28;20566;-84
2021/10/20 02:36:41;;;;;;;4.37;4.07;;;12.10;99.90;;;;;;5038966;28;20491;-80
2021/10/20 02:39:08;;;;;;;4.00;3.70;;;12.00;99.90;;;;;;5040681;28;20467;-81
2021/10/20 02:41:35;;;;;;;4.37;4.03;;;12.00;99.90;;;;;;5039335;28;20452;-80
2021/10/20 02:44:03;;;;;;;3.73;3.40;;;12.00;99.90;;;;;;5039168;28;20472;-81
2021/10/20 02:46:30;;;;;;;4.10;3.80;;;12.00;99.90;;;;;;5038064;28;21003;-82
2021/10/20 02:48:58;;;;;;;4.60;4.20;;;11.90;99.90;;;;;;5057740;28;20454;-80
2021/10/20 02:51:25;;;;;;;3.57;3.33;;;11.90;99.90;;;;;;5059174;28;20451;-80
2021/10/20 02:53:51;;;;;;;5.40;3.80;;;11.80;99.90;;;;;;5052759;22;20507;-82
2021/10/20 02:56:18;;;;;;;3.80;3.50;;;11.80;99.90;;;;;;5035657;28;20460;-81
2021/10/20 02:58:45;;;;;;;4.47;3.73;;;11.80;99.90;;;;;;5036077;28;20455;-81
2021/10/20 03:01:12;;;;;;;3.47;3.27;;;11.80;99.90;;;;;;5036345;28;20460;-82
2021/10/20 03:03:39;;;;;;;3.50;3.20;;;11.70;99.90;;;;;;5035864;28;20483;-81
2021/10/20 03:06:07;;;;;;;3.40;3.10;;;11.70;99.90;;;;;;5036132;28;20456;-80
2021/10/20 03:08:33;;;;;;;3.17;2.97;;;11.70;99.90;;;;;;5037294;28;20447;-81
2021/10/20 03:11:00;;;;;;;3.40;3.10;;;11.80;99.90;;;;;;5036657;28;20460;-82
2021/10/20 03:13:27;;;;;;;3.70;3.40;;;11.80;99.90;;;;;;5053846;28;21015;-80
2021/10/20 03:15:54;;;;;;;2.43;2.23;;;11.90;99.90;;;;;;5056768;28;20463;-81
2021/10/20 03:18:20;;;;;;;3.20;3.00;;;11.90;99.90;;;;;;5040816;28;20854;-82
2021/10/20 03:20:47;;;;;;;3.50;3.30;;;12.00;99.90;;;;;;5037080;28;20452;-82
2021/10/20 03:23:15;;;;;;;3.30;3.00;;;12.00;99.90;;;;;;5050206;28;20546;-81
2021/10/20 03:25:42;;;;;;;6.40;3.67;;;12.10;99.90;;;;;;5056528;28;20452;-81
2021/10/20 03:28:09;;;;;;;3.30;3.00;;;12.20;99.90;;;;;;5043956;28;20478;-81
2021/10/20 03:30:36;;;;;;;3.60;3.30;;;12.30;99.90;;;;;;5036783;28;20455;-81
2021/10/20 03:33:02;;;;;;;6.10;3.83;;;12.30;99.90;;;;;;5048396;28;20471;-81
2021/10/20 03:35:29;;;;;;;3.80;3.50;;;12.30;99.90;;;;;;5056478;28;20455;-81
2021/10/20 03:37:56;;;;;;;4.03;3.73;;;12.30;99.90;;;;;;5055630;28;20506;-81
2021/10/20 03:40:24;;;;;;;4.13;3.80;;;12.40;99.90;;;;;;5056789;28;20455;-82
2021/10/20 03:42:51;;;;;;;3.73;3.50;;;12.30;99.90;;;;;;5042679;28;20488;-82
2021/10/20 03:45:18;;;;;;;3.43;3.10;;;12.40;99.90;;;;;;5036358;28;20452;-82
2021/10/20 03:47:45;;;;;;;3.00;2.80;;;12.50;99.90;;;;;;5049378;28;20841;-81
2021/10/20 03:50:11;;;;;;;3.93;3.63;;;12.50;99.90;;;;;;5056697;28;20452;-82
2021/10/20 03:52:38;;;;;;;3.40;3.10;;;12.50;99.90;;;;;;5057011;28;20452;-81
2021/10/20 03:55:06;;;;;;;3.63;3.17;;;12.60;99.90;;;;;;5057008;28;20451;-81
2021/10/20 03:57:39;;;;;;;4.80;3.57;;;12.60;99.90;;;;;;5056527;28;20455;-82
2021/10/20 04:00:08;;;;;;;3.47;3.20;;;12.60;99.90;;;;;;5056321;28;20861;-82
2021/10/20 04:02:35;;;;;;;4.00;3.70;;;12.60;99.90;;;;;;5055754;28;20459;-82
2021/10/20 04:05:02;;;;;;;3.57;3.37;;;12.60;99.90;;;;;;5063805;28;20458;-81
2021/10/20 04:07:29;;;;;;;3.50;3.20;;;12.50;99.90;;;;;;5058831;28;20472;-81
2021/10/20 04:09:55;;;;;;;4.67;4.30;;;12.60;99.90;;;;;;5054263;28;20543;-79
2021/10/20 04:12:22;;;;;;;3.93;3.60;;;12.60;99.90;;;;;;5062096;28;20464;-82
2021/10/20 04:14:50;;;;;;;3.37;3.17;;;12.60;99.90;;;;;;5056385;28;20463;-82
2021/10/20 04:17:17;;;;;;;3.07;2.87;;;12.50;99.90;;;;;;5055453;28;20462;-81
2021/10/20 04:19:43;;;;;;;2.80;2.60;;;12.50;99.90;;;;;;5056392;28;20444;-81
2021/10/20 04:22:10;;;;;;;4.93;4.53;;;12.50;99.90;;;;;;5048789;28;20453;-82
2021/10/20 04:24:37;;;;;;;4.20;3.90;;;12.60;99.90;;;;;;5036104;28;20473;-81
2021/10/20 04:27:04;;;;;;;3.80;3.50;;;12.60;99.90;;;;;;5035398;28;20467;-81
2021/10/20 04:29:30;;;;;;;3.50;3.20;;;12.60;99.90;;;;;;5036294;28;20449;-81
2021/10/20 04:31:58;;;;;;;4.43;3.00;;;12.60;99.90;;;;;;5036355;28;20452;-82
2021/10/20 04:34:25;;;;;;;5.13;3.17;;;12.60;99.90;;;;;;5035490;28;20498;-81
2021/10/20 04:36:52;;;;;;;3.30;3.10;;;12.60;99.90;;;;;;5035346;28;20456;-81
2021/10/20 04:39:19;;;;;;;3.53;2.90;;;12.60;99.90;;;;;;5035885;28;20449;-82
2021/10/20 04:41:45;;;;;;;2.90;2.70;;;12.60;99.90;;;;;;5042296;28;20455;-82
2021/10/20 04:44:12;;;;;;;4.23;3.87;;;12.50;99.90;;;;;;5056410;28;20476;-82
2021/10/20 04:46:39;;;;;;;3.17;2.90;;;12.50;99.90;;;;;;5055701;28;20462;-84
2021/10/20 04:49:07;;;;;;;3.60;3.30;;;12.50;99.90;;;;;;5057866;28;20487;-85
2021/10/20 04:51:34;;;;;;;3.43;3.20;;;12.50;99.90;;;;;;5053945;28;20456;-85
2021/10/20 04:54:00;;;;;;;4.00;3.33;;;12.50;99.90;;;;;;5037208;28;20510;-85
2021/10/20 04:56:27;;;;;;;3.13;2.60;;;12.50;99.90;;;;;;5039655;28;20456;-85
2021/10/20 04:58:54;;;;;;;3.57;2.30;;;12.50;99.90;;;;;;5057789;28;20452;-84
2021/10/20 05:01:20;;;;;;;3.87;3.57;;;12.50;99.80;;;;;;5056528;28;20448;-85
2021/10/20 05:03:47;;;;;;;3.47;3.20;;;12.40;99.90;;;;;;5037274;28;20476;-85
2021/10/20 05:06:15;;;;;;;3.17;2.87;;;12.40;99.80;;;;;;5041747;28;20452;-85
2021/10/20 05:08:42;;;;;;;3.20;3.00;;;12.50;99.70;;;;;;5017276;28;21034;-85
2021/10/20 05:11:09;;;;;;;3.20;3.00;;;12.50;99.50;;;;;;5024085;28;20465;-84
2021/10/20 05:13:35;;;;;;;3.20;3.00;;;12.60;99.50;;;;;;5056903;28;20476;-83
2021/10/20 05:16:02;;;;;;;3.43;3.13;;;12.60;99.30;;;;;;5057335;28;20455;-83
2021/10/20 05:18:29;;;;;;;3.40;3.10;;;12.80;99.20;;;;;;5040781;28;20455;-84
2021/10/20 05:20:55;;;;;;;5.80;3.17;;;12.80;99.20;;;;;;5041843;28;20447;-82
2021/10/20 05:23:23;;;;;;;4.00;2.73;;;12.80;99.00;;;;;;5041736;28;20843;-84
2021/10/20 05:25:50;;;;;;;3.23;2.93;;;12.80;99.10;;;;;;5040403;28;20456;-84
2021/10/20 05:28:17;;;;;;;4.17;3.30;;;13.00;99.00;;;;;;5040718;28;20481;-84
2021/10/20 05:30:44;;;;;;;3.23;3.03;;;13.00;99.20;;;;;;5041583;28;20455;-83
2021/10/20 05:33:10;;;;;;;3.73;3.43;;;13.10;99.10;;;;;;5057682;28;20474;-84
2021/10/20 05:35:37;;;;;;;4.43;3.57;;;13.00;99.10;;;;;;5060188;28;20448;-84
2021/10/20 05:38:04;;;;;;;3.20;2.90;;;13.00;99.20;;;;;;5059140;28;20444;-82
2021/10/20 05:40:34;;;;;;;3.67;3.37;;;13.00;99.40;;;;;;5060670;28;20960;-84
2021/10/20 05:43:01;;;;;;;3.90;3.50;;;12.90;99.60;;;;;;5042400;28;20485;-84
2021/10/20 05:45:27;;;;;;;3.50;3.20;;;12.90;99.70;;;;;;5040943;28;20957;-85
2021/10/20 05:47:54;;;;;;;3.50;3.20;;;12.90;99.70;;;;;;5040606;28;20484;-84
2021/10/20 05:50:21;;;;;;;4.10;3.10;;;12.80;99.90;;;;;;5048759;28;20451;-84
2021/10/20 05:52:48;;;;;;;3.90;3.70;;;12.90;99.90;;;;;;5059641;28;20487;-83
2021/10/20 05:55:14;;;;;;;3.60;3.40;;;12.90;99.90;;;;;;5058152;28;20447;-84
2021/10/20 05:57:43;;;;;;;3.33;3.10;;;12.90;99.90;;;;;;5060276;28;20523;-84
2021/10/20 06:00:12;;;;;;;2.63;2.43;;;13.00;99.80;;;;;;5041251;28;20464;-84
2021/10/20 06:02:39;;;;;;;3.50;3.30;;;12.90;99.90;;;;;;5055737;28;20448;-84
2021/10/20 06:05:07;;;;;;;3.97;3.63;;;13.00;99.90;;;;;;5060152;28;20452;-81
2021/10/20 06:07:39;;;;;;;3.63;2.87;;;12.90;99.90;;;;;;5045050;28;20452;-83
2021/10/20 06:10:06;;;;;;;4.30;3.90;;;12.90;99.90;;;;;;5040387;28;20517;-84
2021/10/20 06:12:33;;;;;;;3.43;3.13;;;12.90;99.90;;;;;;5041140;28;20452;-83
2021/10/20 06:15:01;;;;;;;3.33;3.13;;;12.80;99.90;;;;;;5040376;28;20460;-83
2021/10/20 06:17:28;;;;;;;6.33;4.07;;;12.80;99.90;;;;;;5056798;28;20456;-83
2021/10/20 06:19:55;;;;;;;4.10;3.87;;;12.80;99.90;;;;;;5070637;28;20442;-79
2021/10/20 06:22:21;;;;;;;3.83;3.50;;;12.80;99.90;;;;;;5060278;28;20965;-79
2021/10/20 06:24:48;;;;;;;5.60;4.00;;;12.70;99.90;;;;;;5045693;28;20934;-83
2021/10/20 06:27:15;;;;;;;4.77;4.27;;;12.70;99.90;;;;;;5040428;28;20483;-82
2021/10/20 06:29:42;;;;;;;4.00;3.60;;;12.70;99.90;;;;;;5040082;28;20487;-82
2021/10/20 06:32:10;;;;;;;3.53;3.20;;;12.60;99.90;;;;;;5052446;28;20478;-82
2021/10/20 06:34:36;;;;;;;3.87;2.97;;;12.70;99.90;;;;;;5058723;28;20478;-82
2021/10/20 06:37:04;;;;;;;3.10;2.80;;;12.70;99.90;;;;;;5041338;28;20483;-83
2021/10/20 06:39:31;;;;;;;4.70;3.60;;;12.70;99.90;;;;;;5037647;28;20452;-83
2021/10/20 06:41:58;;;;;;;3.93;2.77;;;12.70;99.90;;;;;;5038568;28;20441;-83
2021/10/20 06:44:25;;;;;;;4.20;3.90;;;12.80;99.90;;;;;;5041401;28;20472;-83
2021/10/20 06:46:53;;;;;;;3.23;3.03;;;12.80;99.90;;;;;;5035357;28;20452;-83
2021/10/20 06:49:21;;;;;;;4.37;3.13;;;12.90;99.90;;;;;;5038486;28;20481;-83
2021/10/20 06:51:48;;;;;;;3.90;3.50;;;13.00;99.90;;;;;;5038374;28;20449;-83
2021/10/20 06:54:18;;;;;;;2.90;2.70;;;13.00;99.90;;;;;;5040384;28;20568;-83
2021/10/20 06:56:46;;;;;;;4.67;4.27;;;13.10;99.90;;;;;;5038351;28;20459;-82
2021/10/20 06:59:12;;;;;;;4.07;3.77;;;13.20;99.90;;;;;;5034925;28;20448;-81
2021/10/20 07:01:39;;;;;;;3.33;3.13;;;13.40;99.90;;;;;;5038537;28;20445;-82
2021/10/20 07:04:06;;;;;;;6.13;3.70;;;13.40;99.60;;;;;;5039438;28;20473;-81
2021/10/20 07:06:34;;;;;;;4.40;4.00;;;13.50;99.70;;;;;;5041048;28;20835;-81
2021/10/20 07:09:01;;;;;;;6.00;3.40;;;13.60;99.50;;;;;;5039290;28;20487;-83
2021/10/20 07:11:28;;;;;;;3.80;3.50;;;13.90;99.90;;;;;;5044323;28;20459;-83
2021/10/20 07:13:54;;;;;;;3.57;3.30;;;13.90;99.30;;;;;;5059169;28;20472;-82
2021/10/20 07:16:21;;;;;;;4.77;3.57;;;14.10;99.20;;;;;;5054507;28;20460;-83
2021/10/20 07:18:48;;;;;;;6.70;3.90;;;14.30;98.80;;;;;;5039359;28;20456;-83
2021/10/20 07:21:14;;;;;;;3.30;3.10;;;14.50;98.90;;;;;;5041548;28;20460;-82
2021/10/20 07:23:43;;;;;;;4.10;3.80;;;14.60;98.30;;;;;;5059405;28;20465;-83
2021/10/20 07:26:09;;;;;;;4.10;3.40;;;14.70;98.50;;;;;;5057617;28;20464;-83
2021/10/20 07:28:37;;;;;;;3.70;3.20;;;14.70;98.20;;;;;;5049761;28;21187;-81
2021/10/20 07:31:03;;;;;;;3.00;2.80;;;14.70;98.00;;;;;;5057027;28;20451;-81
2021/10/20 07:33:30;;;;;;;4.47;4.17;;;14.70;97.90;;;;;;5040091;28;20472;-81
2021/10/20 07:35:57;;;;;;;4.10;3.67;;;14.70;97.70;;;;;;5057563;28;20457;-81
2021/10/20 07:38:23;;;;;;;5.30;4.50;;;14.80;98.30;;;;;;5056978;28;20444;-81
2021/10/20 07:40:51;;;;;;;4.10;3.80;;;14.80;97.90;;;;;;5057851;28;20444;-81
2021/10/20 07:43:18;;;;;;;4.33;3.40;;;14.90;97.90;;;;;;5058273;28;20862;-81
2021/10/20 07:45:45;;;;;;;4.03;3.53;;;15.00;97.80;;;;;;5058271;28;20452;-81
2021/10/20 07:48:12;;;;;;;3.60;3.30;;;14.90;97.70;;;;;;5058028;28;20487;-81
2021/10/20 07:50:39;;;;;;;3.70;3.37;;;15.00;97.90;;;;;;5058189;28;20437;-82
2021/10/20 07:53:06;;;;;;;3.83;3.53;;;14.90;97.90;;;;;;5056731;28;20994;-82
2021/10/20 07:55:33;;;;;;;4.80;2.93;;;15.00;98.10;;;;;;5056619;28;20464;-83
2021/10/20 07:58:01;;;;;;;4.00;3.70;;;15.00;98.20;;;;;;5057116;28;20505;-82
2021/10/20 08:00:29;;;;;;;4.27;3.60;;;15.10;97.80;;;;;;5055318;28;20459;-79
2021/10/20 08:02:56;;;;;;;4.87;2.97;;;15.10;97.70;;;;;;5054481;28;20474;-79
2021/10/20 08:05:23;;;;;;;5.27;4.10;;;15.10;97.50;;;;;;5054143;28;20452;-79
2021/10/20 08:07:52;;;;;;;3.67;3.40;;;15.20;98.00;;;;;;5054891;28;20444;-78
2021/10/20 08:10:20;;;;;;;4.87;4.10;;;15.30;98.00;;;;;;5054516;28;20534;-79
2021/10/20 08:12:47;;;;;;;3.20;2.93;;;15.30;98.10;;;;;;5054618;28;20469;-80
2021/10/20 08:15:16;;;;;;;3.90;3.60;;;15.50;98.60;;;;;;5056435;28;20965;-82
2021/10/20 08:17:44;;;;;;;3.40;3.10;;;15.70;98.20;;;;;;5056621;28;20448;-83
2021/10/20 08:20:13;;;;;;;8.60;4.90;;;15.60;98.50;;;;;;5057068;28;20445;-83
2021/10/20 08:22:41;;;;;;;3.97;3.00;;;15.80;97.70;;;;;;5056727;28;20453;-82
2021/10/20 08:25:09;;;;;;;2.70;2.50;;;15.90;97.40;;;;;;5056280;28;20449;-83
2021/10/20 08:27:36;;;;;;;3.13;2.93;;;16.10;96.80;;;;;;5057030;28;20456;-81
2021/10/20 08:30:04;;;;;;;3.80;3.50;;;16.20;96.30;;;;;;5056955;28;20484;-83
2021/10/20 08:32:33;;;;;;;2.90;2.67;;;16.40;96.20;;;;;;5057304;28;20524;-82
2021/10/20 08:35:00;;;;;;;4.03;3.27;;;16.60;96.40;;;;;;5057823;28;20454;-82
2021/10/20 08:37:27;;;;;;;3.40;3.10;;;16.80;95.50;;;;;;5057290;28;20969;-81
2021/10/20 08:39:53;;;;;;;3.67;3.37;;;17.00;95.20;;;;;;5057832;28;20449;-81
2021/10/20 08:42:21;;;;;;;3.30;2.90;;;16.90;95.00;;;;;;5058711;28;20453;-81
2021/10/20 08:44:48;;;;;;;3.00;2.70;;;17.00;94.80;;;;;;5057849;28;20576;-82
2021/10/20 08:47:15;;;;;;;6.20;3.00;;;17.10;94.70;;;;;;5057520;28;20462;-81
2021/10/20 08:49:44;;;;;;;3.40;2.50;;;17.10;94.60;;;;;;5060250;28;20572;-81
2021/10/20 08:52:11;;;;;;;2.93;2.63;;;17.20;95.00;;;;;;5061901;28;20454;-81
2021/10/20 08:54:38;;;;;;;5.93;2.93;;;17.20;95.00;;;;;;5061259;28;20490;-82
2021/10/20 08:57:05;;;;;;;2.73;2.53;;;17.20;94.50;;;;;;5060381;28;20450;-82
2021/10/20 08:59:35;;;;;;;3.87;2.33;;;17.40;94.70;;;;;;5063195;28;20447;-83
2021/10/20 09:02:04;;;;;;;3.60;2.70;;;17.50;94.20;;;;;;5061060;28;20855;-82
2021/10/20 09:04:31;;;;;;;3.03;2.50;;;17.50;94.40;;;;;;5061015;28;20471;-82
2021/10/20 09:07:02;;;;;;;3.37;3.00;;;17.50;94.30;;;;;;5060412;28;20449;-83
2021/10/20 09:09:33;;;;;;;2.53;2.13;;;17.70;94.40;;;;;;5060098;28;20486;-83
2021/10/20 09:12:00;;;;;;;4.50;3.80;;;17.70;93.80;;;;;;5060746;28;20450;-81
2021/10/20 09:14:27;;;;;;;2.90;2.67;;;17.70;94.30;;;;;;5057513;28;20486;-80
2021/10/20 09:16:54;;;;;;;3.03;2.83;;;17.90;94.20;;;;;;5055430;28;20966;-80
2021/10/20 09:19:24;;;;;;;3.13;2.83;;;17.90;93.70;;;;;;5055508;28;20451;-80
2021/10/20 09:21:54;;;;;;;4.20;2.80;;;18.00;93.90;;;;;;5055257;28;20455;-80
2021/10/20 09:24:22;;;;;;;3.33;3.13;;;18.10;93.90;;;;;;5063072;28;20479;-77
2021/10/20 09:26:51;;;;;;;3.23;2.60;;;18.20;93.90;;;;;;5066086;28;20462;-79
2021/10/20 09:29:24;;;;;;;3.10;2.90;;;18.30;94.20;;;;;;5066496;28;20482;-78
2021/10/20 09:31:51;;;;;;;2.80;2.53;;;18.40;94.40;;;;;;5060650;28;21040;-78
2021/10/20 09:34:18;;;;;;;3.00;2.80;;;18.30;93.60;;;;;;5055026;28;20506;-80
2021/10/20 09:36:45;;;;;;;3.77;3.47;;;18.30;93.90;;;;;;5054658;28;20463;-80
2021/10/20 09:39:12;;;;;;;2.93;2.73;;;18.20;94.10;;;;;;5054880;28;20443;-82
2021/10/20 09:41:40;;;;;;;3.67;2.77;;;18.40;94.00;;;;;;5054453;28;20447;-80
2021/10/20 09:44:09;;;;;;;3.10;2.90;;;18.50;93.80;;;;;;5054819;28;20471;-80
2021/10/20 09:46:37;;;;;;;2.67;2.47;;;18.60;94.40;;;;;;5054568;28;20862;-81
2021/10/20 09:49:15;;;;;;;2.43;2.30;;;18.70;93.30;;;;;;5054752;28;20492;-80
2021/10/20 09:51:42;;;;;;;2.67;2.47;;;18.90;93.40;;;;;;5054647;28;20553;-80
2021/10/20 09:54:23;;;;;;;3.33;3.10;;;18.90;93.20;;;;;;5054177;28;20856;-80
2021/10/20 09:56:56;;;;;;;2.87;2.67;;;19.00;93.10;;;;;;5054233;28;20455;-80
2021/10/20 09:59:23;;;;;;;3.00;2.77;;;18.90;93.30;;;;;;5054693;28;20451;-80
2021/10/20 10:01:50;;;;;;;3.50;3.20;;;18.90;93.40;;;;;;5053737;28;20478;-81
2021/10/20 10:04:18;;;;;;;2.73;2.50;;;19.00;93.30;;;;;;5054185;28;20479;-80
2021/10/20 10:06:46;;;;;;;3.70;3.40;;;19.00;93.10;;;;;;5054585;28;20466;-80
2021/10/20 10:09:14;;;;;;;2.67;2.47;;;19.20;93.40;;;;;;5056313;28;20487;-77
2021/10/20 10:11:47;;;;;;;3.20;2.83;;;19.30;93.00;;;;;;5061588;28;20455;-79
2021/10/20 10:14:19;;;;;;;3.43;2.63;;;19.60;93.10;;;;;;5060931;28;20463;-78
2021/10/20 10:16:47;;;;;;;3.40;3.00;;;19.70;92.80;;;;;;5055891;28;20962;-80
2021/10/20 10:19:15;;;;;;;2.67;2.40;;;19.80;92.50;;;;;;5054002;28;20448;-80
2021/10/20 10:21:45;;;;;;;2.80;2.60;;;19.90;92.00;;;;;;5053804;28;20953;-80
2021/10/20 10:24:14;;;;;;;3.23;2.93;;;19.80;91.90;;;;;;5053982;28;20567;-80
2021/10/20 10:26:59;;;;;;;3.53;3.00;;;19.80;92.20;;;;;;5053575;28;20452;-80
2021/10/20 10:29:28;;;;;;;3.50;3.30;;;20.00;92.30;;;;;;5053678;28;20484;-80
2021/10/20 10:32:01;;;;;;;3.27;2.97;;;20.20;92.30;;;;;;5053811;28;20815;-80
2021/10/20 10:34:34;;;;;;;3.10;2.80;;;20.20;92.10;;;;;;5053991;28;20472;-80
2021/10/20 10:37:01;;;;;;;2.47;2.27;;;20.30;91.80;;;;;;5053338;28;21125;-80
2021/10/20 10:39:29;;;;;;;3.30;2.90;;;20.30;91.80;;;;;;5053606;28;20448;-80
2021/10/20 10:42:00;;;;;;;2.50;2.30;;;20.20;91.90;;;;;;5053421;28;20929;-80
2021/10/20 10:44:29;;;;;;;3.20;2.90;;;20.10;91.60;;;;;;5053638;28;20475;-78
2021/10/20 10:47:17;;;;;;;3.33;2.50;;;20.10;92.00;;;;;;5053543;28;20452;-81
2021/10/20 10:49:48;;;;;;;2.47;2.23;;;20.20;91.90;;;;;;5053303;28;20472;-80
2021/10/20 10:52:29;;;;;;;3.07;2.83;;;20.40;92.10;;;;;;5054735;28;20502;-80
2021/10/20 10:55:13;;;;;;;3.57;3.37;;;20.40;92.20;;;;;;5054477;28;20432;-80
2021/10/20 10:57:43;;;;;;;2.87;2.67;;;21.00;91.60;;;;;;5053629;28;20437;-80
2021/10/20 11:00:34;;;;;;;2.70;2.40;;;21.50;90.70;;;;;;5054070;28;20972;-79
2021/10/20 11:03:18;;;;;;;3.10;2.37;;;21.70;90.50;;;;;;5055309;28;20476;-79
2021/10/20 11:05:53;;;;;;;2.10;2.00;;;22.00;91.00;;;;;;5055974;28;20447;-79
2021/10/20 11:08:21;;;;;;;2.60;2.40;;;22.10;89.80;;;;;;5055675;28;20449;-79
2021/10/20 11:10:48;;;;;;;3.17;2.87;;;22.40;89.60;;;;;;5055955;28;20486;-79
2021/10/20 11:13:16;;;;;;;2.43;2.33;;;22.70;89.50;;;;;;5054293;28;20463;-79
2021/10/20 11:15:46;;;;;;;2.90;2.60;;;22.50;88.40;;;;;;5055667;28;20457;-79
2021/10/20 11:18:13;;;;;;;2.70;2.50;;;22.30;89.20;;;;;;5056127;28;20454;-79
2021/10/20 11:20:43;;;;;;;3.10;2.90;;;22.10;89.20;;;;;;5055570;28;20449;-79
2021/10/20 11:23:15;;;;;;;2.87;2.67;;;22.10;89.20;;;;;;5055347;28;20510;-79
2021/10/20 11:25:44;;;;;;;3.07;2.87;;;22.40;88.80;;;;;;5055184;28;20451;-79
2021/10/20 11:28:12;;;;;;;2.20;2.10;;;22.90;88.80;;;;;;5055940;28;20824;-79
2021/10/20 11:30:40;;;;;;;4.27;2.77;;;23.50;87.40;;;;;;5055732;28;20495;-79
2021/10/20 11:33:11;;;;;;;2.60;2.40;;;24.20;87.20;;;;;;5056339;28;20464;-80
2021/10/20 11:35:38;;;;;;;4.50;2.77;;;24.60;84.80;;;;;;5056226;28;20945;-80
2021/10/20 11:38:07;;;;;;;2.37;2.17;;;24.60;82.30;;;;;;5056778;28;20449;-80
2021/10/20 11:40:36;;;;;;;2.20;2.10;;;24.70;82.60;;;;;;5057368;28;20456;-80
2021/10/20 11:43:03;;;;;;;3.23;2.60;;;25.20;84.20;;;;;;5057336;28;20469;-80
2021/10/20 11:45:31;;;;;;;2.50;2.30;;;25.50;80.10;;;;;;5056487;28;20457;-80
2021/10/20 11:48:02;;;;;;;3.00;2.80;;;25.40;79.20;;;;;;5056528;28;20444;-79
2021/10/20 11:50:32;;;;;;;2.40;2.23;;;25.60;80.40;;;;;;5056034;28;20489;-79
2021/10/20 11:53:00;;;;;;;2.73;2.53;;;26.00;79.00;;;;;;5056033;28;20485;-79
2021/10/20 11:55:28;;;;;;;1.87;1.77;;;26.40;78.30;;;;;;5055750;28;20453;-79
2021/10/20 11:57:55;;;;;;;2.40;2.20;;;26.60;76.30;;;;;;5055587;28;20485;-80
2021/10/20 12:00:22;;;;;;;2.40;2.20;;;26.40;75.70;;;;;;5056166;28;20449;-79
2021/10/20 12:02:49;;;;;;;2.33;2.13;;;26.30;75.60;;;;;;5055816;28;20481;-79
2021/10/20 12:05:16;;;;;;;2.43;2.33;;;26.40;75.60;;;;;;5055092;28;20956;-80
2021/10/20 12:07:47;;;;;;;1.83;1.73;;;25.90;76.10;;;;;;5056041;28;20458;-79
2021/10/20 12:10:16;;;;;;;2.73;2.30;;;25.00;76.70;;;;;;5056145;28;20537;-80
2021/10/20 12:12:43;;;;;;;2.37;2.27;;;24.50;78.60;;;;;;5056241;28;20518;-79
2021/10/20 12:15:18;;;;;;;2.27;2.17;;;23.70;80.40;;;;;;5055427;28;20448;-80
2021/10/20 12:17:46;;;;;;;2.60;2.40;;;23.30;82.10;;;;;;5056074;28;20504;-79
2021/10/20 12:20:15;;;;;;;3.30;2.20;;;22.90;83.30;;;;;;5055791;28;20444;-79
2021/10/20 12:22:42;;;;;;;3.73;2.40;;;22.70;84.40;;;;;;5055568;28;20497;-79
2021/10/20 12:25:11;;;;;;;6.00;2.60;;;22.60;85.60;;;;;;5058551;28;20465;-79
2021/10/20 12:27:39;;;;;;;2.00;1.90;;;23.00;85.30;;;;;;5059369;28;20447;-79
2021/10/20 12:30:08;;;;;;;2.87;2.67;;;23.80;84.40;;;;;;5059331;28;20479;-79
2021/10/20 12:32:36;;;;;;;2.50;2.30;;;24.30;82.20;;;;;;5058665;28;21013;-79
2021/10/20 12:35:06;;;;;;;2.77;2.57;;;24.70;81.40;;;;;;5058928;28;20467;-79
2021/10/20 12:37:35;;;;;;;3.47;3.00;;;25.00;80.20;;;;;;5059479;28;20592;-79
2021/10/20 12:40:16;;;;;;;3.33;2.23;;;25.00;80.70;;;;;;5059060;28;20934;-79
2021/10/20 12:42:47;;;;;;;2.20;2.00;;;24.60;80.80;;;;;;5059069;28;20477;-80
2021/10/20 12:45:14;;;;;;;4.33;2.40;;;24.00;81.70;;;;;;5058780;28;20444;-79
2021/10/20 12:47:43;;;;;;;2.83;2.57;;;23.20;82.60;;;;;;5058824;28;20461;-79
2021/10/20 12:50:12;;;;;;;2.83;2.63;;;22.90;84.30;;;;;;5058741;28;20491;-79
2021/10/20 12:52:40;;;;;;;2.83;2.63;;;22.70;85.90;;;;;;5059037;28;20454;-79